sensor_id;sensor_type;location;lat;lon;timestamp;pressure;altitude;pressure_sealevel;temperature;humidity
23996;BME280;12207;50.076;8.848;2023-05-08T09:50:22;100656.31;;;21.27;62.99
23996;BME280;12207;50.076;8.848;2023-05-08T09:52:50;100661.78;;;21.27;62.95
23996;BME280;12207;50.076;8.848;2023-05-08T09:55:17;100669.41;;;21.30;62.89
23996;BME280;12207;50.076;8.848;2023-05-08T09:57:57;100667.22;;;21.32;62.62
23996;BME280;12207;50.076;8.848;2023-05-08T10:00:28;100669.41;;;21.35;62.58
23996;BME280;12207;50.076;8.848;2023-05-08T10:03:02;100673.25;;;21.39;62.87
23996;BME280;12207;50.076;8.848;2023-05-08T10:05:32;100674.34;;;21.43;62.45
23996;BME280;12207;50.076;8.848;2023-05-08T10:08:21;100675.72;;;21.46;62.54
23996;BME280;12207;50.076;8.848;2023-05-08T10:10:48;100667.81;;;21.44;60.78
23996;BME280;12207;50.076;8.848;2023-05-08T10:13:14;100678.16;;;21.48;62.02
23996;BME280;12207;50.076;8.848;2023-05-08T10:15:42;100672.16;;;21.51;62.02
23996;BME280;12207;50.076;8.848;2023-05-08T10:18:09;100673.50;;;21.53;61.90
23996;BME280;12207;50.076;8.848;2023-05-08T10:20:41;100674.88;;;21.56;62.28
23996;BME280;12207;50.076;8.848;2023-05-08T10:23:14;100674.63;;;21.57;62.00
23996;BME280;12207;50.076;8.848;2023-05-08T10:25:47;100675.97;;;21.60;62.03
23996;BME280;12207;50.076;8.848;2023-05-08T10:28:43;100679.25;;;21.62;61.86
23996;BME280;12207;50.076;8.848;2023-05-08T10:31:12;100673.53;;;21.63;62.12
23996;BME280;12207;50.076;8.848;2023-05-08T10:33:44;100670.53;;;21.65;62.17
23996;BME280;12207;50.076;8.848;2023-05-08T10:36:12;100670.25;;;21.66;61.62
23996;BME280;12207;50.076;8.848;2023-05-08T10:38:40;100668.09;;;21.68;61.56
23996;BME280;12207;50.076;8.848;2023-05-08T10:41:09;100674.91;;;21.71;61.83
23996;BME280;12207;50.076;8.848;2023-05-08T10:43:40;100670.00;;;21.73;61.35
23996;BME280;12207;50.076;8.848;2023-05-08T10:46:16;100663.97;;;21.76;61.66
23996;BME280;12207;50.076;8.848;2023-05-08T10:49:06;100664.50;;;21.78;61.33
23996;BME280;12207;50.076;8.848;2023-05-08T10:57:19;100650.88;;;21.83;61.44
23996;BME280;12207;50.076;8.848;2023-05-08T10:59:46;100665.88;;;21.86;61.35
23996;BME280;12207;50.076;8.848;2023-05-08T11:02:12;100651.13;;;21.87;61.47
23996;BME280;12207;50.076;8.848;2023-05-08T11:04:40;100654.69;;;21.87;61.05
23996;BME280;12207;50.076;8.848;2023-05-08T11:07:06;100651.69;;;21.89;61.25
23996;BME280;12207;50.076;8.848;2023-05-08T11:09:45;100643.22;;;21.90;61.53
23996;BME280;12207;50.076;8.848;2023-05-08T11:12:28;100647.59;;;21.91;61.07
23996;BME280;12207;50.076;8.848;2023-05-08T11:15:04;100642.13;;;21.91;60.89
23996;BME280;12207;50.076;8.848;2023-05-08T11:17:32;100642.69;;;21.93;61.14
23996;BME280;12207;50.076;8.848;2023-05-08T11:20:04;100645.97;;;21.95;60.59
23996;BME280;12207;50.076;8.848;2023-05-08T11:22:32;100641.00;;;21.97;61.00
23996;BME280;12207;50.076;8.848;2023-05-08T11:25:10;100636.91;;;22.00;61.11
23996;BME280;12207;50.076;8.848;2023-05-08T11:30:35;100635.84;;;22.06;60.76
23996;BME280;12207;50.076;8.848;2023-05-08T11:38:32;100634.19;;;22.15;60.71
23996;BME280;12207;50.076;8.848;2023-05-08T11:41:20;100635.84;;;22.16;60.40
23996;BME280;12207;50.076;8.848;2023-05-08T11:46:52;100632.28;;;22.16;60.21
23996;BME280;12207;50.076;8.848;2023-05-08T11:49:22;100629.56;;;22.16;60.21
23996;BME280;12207;50.076;8.848;2023-05-08T11:51:54;100627.66;;;22.16;60.33
23996;BME280;12207;50.076;8.848;2023-05-08T11:54:24;100626.00;;;22.15;60.43
23996;BME280;12207;50.076;8.848;2023-05-08T11:56:52;100631.19;;;22.17;60.51
23996;BME280;12207;50.076;8.848;2023-05-08T11:59:19;100634.19;;;22.15;60.23
23996;BME280;12207;50.076;8.848;2023-05-08T12:01:50;100625.72;;;22.17;60.40
23996;BME280;12207;50.076;8.848;2023-05-08T12:04:17;100628.47;;;22.17;60.58
23996;BME280;12207;50.076;8.848;2023-05-08T12:06:43;100629.81;;;22.19;60.55
23996;BME280;12207;50.076;8.848;2023-05-08T12:09:13;100628.44;;;22.22;60.21
23996;BME280;12207;50.076;8.848;2023-05-08T12:11:40;100628.16;;;22.23;60.17
23996;BME280;12207;50.076;8.848;2023-05-08T12:14:09;100622.94;;;22.27;60.36
23996;BME280;12207;50.076;8.848;2023-05-08T12:16:37;100614.22;;;22.30;60.09
23996;BME280;12207;50.076;8.848;2023-05-08T12:19:11;100625.66;;;22.32;59.99
23996;BME280;12207;50.076;8.848;2023-05-08T12:21:44;100623.22;;;22.35;60.27
23996;BME280;12207;50.076;8.848;2023-05-08T12:24:12;100624.84;;;22.36;59.79
23996;BME280;12207;50.076;8.848;2023-05-08T12:26:38;100636.59;;;22.37;59.83
23996;BME280;12207;50.076;8.848;2023-05-08T12:29:06;100627.28;;;22.38;60.01
23996;BME280;12207;50.076;8.848;2023-05-08T12:31:35;100619.66;;;22.40;59.97
23996;BME280;12207;50.076;8.848;2023-05-08T12:34:05;100624.00;;;22.41;59.78
23996;BME280;12207;50.076;8.848;2023-05-08T12:36:35;100624.81;;;22.41;59.92
23996;BME280;12207;50.076;8.848;2023-05-08T12:39:14;100627.28;;;22.43;59.84
23996;BME280;12207;50.076;8.848;2023-05-08T12:41:51;100620.69;;;22.44;59.73
23996;BME280;12207;50.076;8.848;2023-05-08T12:44:27;100619.59;;;22.45;60.02
23996;BME280;12207;50.076;8.848;2023-05-08T12:46:56;100617.41;;;22.47;59.69
23996;BME280;12207;50.076;8.848;2023-05-08T12:49:30;100617.13;;;22.49;59.85
23996;BME280;12207;50.076;8.848;2023-05-08T12:52:09;100612.47;;;22.49;59.30
23996;BME280;12207;50.076;8.848;2023-05-08T12:54:40;100620.41;;;22.51;59.58
23996;BME280;12207;50.076;8.848;2023-05-08T12:57:12;100623.69;;;22.48;59.84
23996;BME280;12207;50.076;8.848;2023-05-08T12:59:40;100621.78;;;22.48;59.73
23996;BME280;12207;50.076;8.848;2023-05-08T13:02:19;100613.03;;;22.46;59.97
23996;BME280;12207;50.076;8.848;2023-05-08T13:04:53;100609.50;;;22.45;59.89
23996;BME280;12207;50.076;8.848;2023-05-08T13:07:23;100612.22;;;22.45;59.81
23996;BME280;12207;50.076;8.848;2023-05-08T13:10:00;100611.41;;;22.45;59.89
23996;BME280;12207;50.076;8.848;2023-05-08T13:12:30;100602.41;;;22.44;59.83
23996;BME280;12207;50.076;8.848;2023-05-08T13:14:57;100597.75;;;22.45;59.62
23996;BME280;12207;50.076;8.848;2023-05-08T13:17:23;100602.41;;;22.44;60.04
23996;BME280;12207;50.076;8.848;2023-05-08T13:19:49;100596.94;;;22.44;59.75
23996;BME280;12207;50.076;8.848;2023-05-08T13:22:16;100595.03;;;22.45;59.84
23996;BME280;12207;50.076;8.848;2023-05-08T13:24:42;100595.84;;;22.45;59.74
23996;BME280;12207;50.076;8.848;2023-05-08T13:27:09;100592.28;;;22.45;59.75
23996;BME280;12207;50.076;8.848;2023-05-08T13:29:35;100590.66;;;22.44;59.78
23996;BME280;12207;50.076;8.848;2023-05-08T13:32:01;100583.28;;;22.44;59.92
23996;BME280;12207;50.076;8.848;2023-05-08T13:34:28;100583.28;;;22.44;60.23
23996;BME280;12207;50.076;8.848;2023-05-08T13:36:54;100584.09;;;22.45;60.02
23996;BME280;12207;50.076;8.848;2023-05-08T13:39:21;100574.25;;;22.44;59.88
23996;BME280;12207;50.076;8.848;2023-05-08T13:41:47;100575.09;;;22.44;59.78
23996;BME280;12207;50.076;8.848;2023-05-08T13:44:14;100565.28;;;22.43;59.99
23996;BME280;12207;50.076;8.848;2023-05-08T13:46:40;100576.22;;;22.43;60.12
23996;BME280;12207;50.076;8.848;2023-05-08T13:49:07;100574.56;;;22.42;60.06
23996;BME280;12207;50.076;8.848;2023-05-08T13:51:33;100573.75;;;22.42;60.16
23996;BME280;12207;50.076;8.848;2023-05-08T13:54:00;100573.75;;;22.42;60.19
23996;BME280;12207;50.076;8.848;2023-05-08T13:56:26;100580.31;;;22.41;60.10
23996;BME280;12207;50.076;8.848;2023-05-08T13:58:53;100575.94;;;22.40;60.13
23996;BME280;12207;50.076;8.848;2023-05-08T14:01:19;100567.22;;;22.33;58.29
23996;BME280;12207;50.076;8.848;2023-05-08T14:03:45;100566.97;;;22.34;59.81
23996;BME280;12207;50.076;8.848;2023-05-08T14:06:12;100577.88;;;22.34;60.17
23996;BME280;12207;50.076;8.848;2023-05-08T14:08:38;100559.03;;;22.33;60.06
23996;BME280;12207;50.076;8.848;2023-05-08T14:11:05;100556.31;;;22.33;60.17
23996;BME280;12207;50.076;8.848;2023-05-08T14:13:31;100564.50;;;22.33;60.15
23996;BME280;12207;50.076;8.848;2023-05-08T14:15:58;100556.03;;;22.34;60.15
23996;BME280;12207;50.076;8.848;2023-05-08T14:18:24;100562.59;;;22.33;60.31
23996;BME280;12207;50.076;8.848;2023-05-08T14:20:50;100556.03;;;22.34;60.23
23996;BME280;12207;50.076;8.848;2023-05-08T14:23:17;100556.03;;;22.34;60.33
23996;BME280;12207;50.076;8.848;2023-05-08T14:25:43;100559.59;;;22.35;60.21
23996;BME280;12207;50.076;8.848;2023-05-08T14:28:10;100561.50;;;22.34;60.29
23996;BME280;12207;50.076;8.848;2023-05-08T14:30:36;100551.38;;;22.35;60.31
23996;BME280;12207;50.076;8.848;2023-05-08T14:33:03;100546.22;;;22.33;60.36
23996;BME280;12207;50.076;8.848;2023-05-08T14:35:29;100551.66;;;22.33;60.41
23996;BME280;12207;50.076;8.848;2023-05-08T14:37:56;100545.94;;;22.35;60.48
23996;BME280;12207;50.076;8.848;2023-05-08T14:40:22;100554.41;;;22.33;60.69
23996;BME280;12207;50.076;8.848;2023-05-08T14:42:48;100545.13;;;22.34;60.66
23996;BME280;12207;50.076;8.848;2023-05-08T14:45:15;100539.94;;;22.33;60.52
23996;BME280;12207;50.076;8.848;2023-05-08T14:47:41;100539.66;;;22.34;60.75
23996;BME280;12207;50.076;8.848;2023-05-08T14:50:09;100545.13;;;22.34;60.57
23996;BME280;12207;50.076;8.848;2023-05-08T14:52:35;100539.94;;;22.33;60.72
23996;BME280;12207;50.076;8.848;2023-05-08T14:55:02;100532.56;;;22.33;61.01
23996;BME280;12207;50.076;8.848;2023-05-08T14:57:28;100538.28;;;22.32;60.48
23996;BME280;12207;50.076;8.848;2023-05-08T14:59:54;100536.38;;;22.32;60.61
23996;BME280;12207;50.076;8.848;2023-05-08T15:02:22;100541.03;;;22.32;60.29
23996;BME280;12207;50.076;8.848;2023-05-08T15:04:49;100539.38;;;22.31;60.61
23996;BME280;12207;50.076;8.848;2023-05-08T15:07:15;100535.84;;;22.30;60.74
23996;BME280;12207;50.076;8.848;2023-05-08T15:09:42;100536.94;;;22.29;60.71
23996;BME280;12207;50.076;8.848;2023-05-08T15:12:08;100538.84;;;22.29;60.63
23996;BME280;12207;50.076;8.848;2023-05-08T15:14:34;100534.50;;;22.28;60.95
23996;BME280;12207;50.076;8.848;2023-05-08T15:17:01;100527.41;;;22.27;60.78
23996;BME280;12207;50.076;8.848;2023-05-08T15:19:27;100531.22;;;22.26;60.85
23996;BME280;12207;50.076;8.848;2023-05-08T15:21:54;100538.31;;;22.27;60.68
23996;BME280;12207;50.076;8.848;2023-05-08T15:24:20;100532.03;;;22.26;60.79
23996;BME280;12207;50.076;8.848;2023-05-08T15:26:47;100529.59;;;22.25;61.21
23996;BME280;12207;50.076;8.848;2023-05-08T15:29:13;100525.50;;;22.22;60.90
23996;BME280;12207;50.076;8.848;2023-05-08T15:31:40;100527.13;;;22.23;61.00
23996;BME280;12207;50.076;8.848;2023-05-08T15:34:06;100530.13;;;22.22;60.81
23996;BME280;12207;50.076;8.848;2023-05-08T15:36:32;100529.31;;;22.21;61.25
23996;BME280;12207;50.076;8.848;2023-05-08T15:39:00;100534.78;;;22.21;60.85
23996;BME280;12207;50.076;8.848;2023-05-08T15:41:26;100533.19;;;22.20;61.05
23996;BME280;12207;50.076;8.848;2023-05-08T15:43:53;100528.28;;;22.17;61.13
23996;BME280;12207;50.076;8.848;2023-05-08T15:46:19;100537.56;;;22.16;61.39
23996;BME280;12207;50.076;8.848;2023-05-08T15:48:46;100534.84;;;22.16;61.33
23996;BME280;12207;50.076;8.848;2023-05-08T15:51:12;100544.41;;;22.14;61.40
23996;BME280;12207;50.076;8.848;2023-05-08T15:53:38;100540.84;;;22.13;61.74
23996;BME280;12207;50.076;8.848;2023-05-08T15:56:05;100541.94;;;22.12;61.80
23996;BME280;12207;50.076;8.848;2023-05-08T15:58:32;100533.22;;;22.10;61.72
23996;BME280;12207;50.076;8.848;2023-05-08T16:00:58;100546.03;;;22.09;62.05
23996;BME280;12207;50.076;8.848;2023-05-08T16:03:25;100542.78;;;22.07;61.93
23996;BME280;12207;50.076;8.848;2023-05-08T16:05:51;100546.31;;;22.08;61.79
23996;BME280;12207;50.076;8.848;2023-05-08T16:08:18;100554.78;;;22.06;61.97
23996;BME280;12207;50.076;8.848;2023-05-08T16:10:44;100547.69;;;22.05;62.29
23996;BME280;12207;50.076;8.848;2023-05-08T16:13:10;100563.53;;;22.03;60.08
23996;BME280;12207;50.076;8.848;2023-05-08T16:15:37;100558.06;;;22.03;61.99
23996;BME280;12207;50.076;8.848;2023-05-08T16:18:04;100562.44;;;22.04;62.03
23996;BME280;12207;50.076;8.848;2023-05-08T16:20:31;100564.06;;;22.05;61.84
23996;BME280;12207;50.076;8.848;2023-05-08T16:22:58;100558.59;;;22.05;62.31
23996;BME280;12207;50.076;8.848;2023-05-08T16:25:24;100553.97;;;22.06;62.92
23996;BME280;12207;50.076;8.848;2023-05-08T16:27:51;100554.50;;;22.08;63.38
23996;BME280;12207;50.076;8.848;2023-05-08T16:30:17;100547.13;;;22.08;63.65
23996;BME280;12207;50.076;8.848;2023-05-08T16:32:44;100543.31;;;22.09;64.11
23996;BME280;12207;50.076;8.848;2023-05-08T16:35:11;100515.75;;;22.11;64.93
23996;BME280;12207;50.076;8.848;2023-05-08T16:37:37;100515.19;;;22.09;63.36
23996;BME280;12207;50.076;8.848;2023-05-08T16:40:06;100492.00;;;22.06;63.50
23996;BME280;12207;50.076;8.848;2023-05-08T16:42:33;100489.84;;;22.03;63.52
23996;BME280;12207;50.076;8.848;2023-05-08T16:44:59;100541.16;;;22.01;64.39
23996;BME280;12207;50.076;8.848;2023-05-08T16:47:26;100543.59;;;22.03;64.64
23996;BME280;12207;50.076;8.848;2023-05-08T16:49:52;100547.69;;;22.05;64.57
23996;BME280;12207;50.076;8.848;2023-05-08T16:52:19;100546.59;;;22.06;64.88
23996;BME280;12207;50.076;8.848;2023-05-08T16:54:45;100544.69;;;22.07;64.70
23996;BME280;12207;50.076;8.848;2023-05-08T16:57:12;100540.03;;;22.07;64.51
23996;BME280;12207;50.076;8.848;2023-05-08T16:59:38;100533.50;;;22.08;64.43
23996;BME280;12207;50.076;8.848;2023-05-08T17:02:06;100537.84;;;22.09;64.56
23996;BME280;12207;50.076;8.848;2023-05-08T17:04:33;100539.50;;;22.10;64.36
23996;BME280;12207;50.076;8.848;2023-05-08T17:06:59;100534.03;;;22.10;64.43
23996;BME280;12207;50.076;8.848;2023-05-08T17:09:26;100541.41;;;22.10;64.40
23996;BME280;12207;50.076;8.848;2023-05-08T17:11:53;100533.22;;;22.10;64.31
23996;BME280;12207;50.076;8.848;2023-05-08T17:14:19;100537.84;;;22.09;64.07
23996;BME280;12207;50.076;8.848;2023-05-08T17:16:46;100535.94;;;22.10;64.36
23996;BME280;12207;50.076;8.848;2023-05-08T17:19:12;100532.41;;;22.09;63.91
23996;BME280;12207;50.076;8.848;2023-05-08T17:21:38;100532.41;;;22.09;64.02
23996;BME280;12207;50.076;8.848;2023-05-08T17:24:05;100529.13;;;22.07;63.80
23996;BME280;12207;50.076;8.848;2023-05-08T17:26:32;100531.03;;;22.07;63.97
23996;BME280;12207;50.076;8.848;2023-05-08T17:28:58;100532.94;;;22.06;64.14
23996;BME280;12207;50.076;8.848;2023-05-08T17:31:25;100523.94;;;22.06;64.19
23996;BME280;12207;50.076;8.848;2023-05-08T17:33:51;100530.50;;;22.05;63.89
23996;BME280;12207;50.076;8.848;2023-05-08T17:36:18;100531.59;;;22.04;63.76
23996;BME280;12207;50.076;8.848;2023-05-08T17:38:44;100524.50;;;22.03;63.90
23996;BME280;12207;50.076;8.848;2023-05-08T17:41:13;100520.41;;;22.00;63.70
23996;BME280;12207;50.076;8.848;2023-05-08T17:43:39;100521.47;;;21.99;63.75
23996;BME280;12207;50.076;8.848;2023-05-08T17:46:06;100518.22;;;21.97;63.61
23996;BME280;12207;50.076;8.848;2023-05-08T17:48:33;100513.06;;;21.96;63.58
23996;BME280;12207;50.076;8.848;2023-05-08T17:51:01;100522.34;;;21.95;63.52
23996;BME280;12207;50.076;8.848;2023-05-08T17:53:28;100527.25;;;21.93;63.69
23996;BME280;12207;50.076;8.848;2023-05-08T17:55:58;100535.72;;;21.91;63.38
23996;BME280;12207;50.076;8.848;2023-05-08T17:58:24;100537.63;;;21.91;63.72
23996;BME280;12207;50.076;8.848;2023-05-08T18:00:51;100541.44;;;21.90;63.58
23996;BME280;12207;50.076;8.848;2023-05-08T18:03:18;100534.63;;;21.87;63.51
23996;BME280;12207;50.076;8.848;2023-05-08T18:05:45;100538.47;;;21.86;63.51
23996;BME280;12207;50.076;8.848;2023-05-08T18:08:11;100541.47;;;21.85;63.77
23996;BME280;12207;50.076;8.848;2023-05-08T18:10:38;100533.56;;;21.83;63.48
23996;BME280;12207;50.076;8.848;2023-05-08T18:13:04;100535.72;;;21.81;63.58
23996;BME280;12207;50.076;8.848;2023-05-08T18:15:31;100540.09;;;21.82;63.82
23996;BME280;12207;50.076;8.848;2023-05-08T18:17:57;100543.38;;;21.79;63.64
23996;BME280;12207;50.076;8.848;2023-05-08T18:20:23;100542.28;;;21.80;63.71
23996;BME280;12207;50.076;8.848;2023-05-08T18:22:50;100537.09;;;21.78;63.80
23996;BME280;12207;50.076;8.848;2023-05-08T18:25:16;100535.19;;;21.79;64.09
23996;BME280;12207;50.076;8.848;2023-05-08T18:27:43;100535.47;;;21.77;63.85
23996;BME280;12207;50.076;8.848;2023-05-08T18:30:11;100531.09;;;21.76;64.03
23996;BME280;12207;50.076;8.848;2023-05-08T18:32:38;100536.84;;;21.75;63.57
23996;BME280;12207;50.076;8.848;2023-05-08T18:35:04;100535.19;;;21.74;63.90
23996;BME280;12207;50.076;8.848;2023-05-08T18:37:31;100536.31;;;21.73;63.92
23996;BME280;12207;50.076;8.848;2023-05-08T18:39:57;100539.06;;;21.73;63.65
23996;BME280;12207;50.076;8.848;2023-05-08T18:42:24;100537.41;;;21.72;63.92
23996;BME280;12207;50.076;8.848;2023-05-08T18:44:52;100534.97;;;21.70;64.14
23996;BME280;12207;50.076;8.848;2023-05-08T18:47:19;100542.34;;;21.70;63.95
23996;BME280;12207;50.076;8.848;2023-05-08T18:49:45;100536.34;;;21.68;64.07
23996;BME280;12207;50.076;8.848;2023-05-08T18:52:12;100536.34;;;21.68;64.20
23996;BME280;12207;50.076;8.848;2023-05-08T18:54:39;100539.06;;;21.68;64.39
23996;BME280;12207;50.076;8.848;2023-05-08T18:57:06;100537.16;;;21.68;64.03
23996;BME280;12207;50.076;8.848;2023-05-08T18:59:32;100536.34;;;21.68;64.11
23996;BME280;12207;50.076;8.848;2023-05-08T19:01:59;100543.69;;;21.67;64.40
23996;BME280;12207;50.076;8.848;2023-05-08T19:04:25;100545.59;;;21.67;64.20
23996;BME280;12207;50.076;8.848;2023-05-08T19:06:51;100542.88;;;21.67;63.96
23996;BME280;12207;50.076;8.848;2023-05-08T19:09:18;100545.59;;;21.67;64.31
23996;BME280;12207;50.076;8.848;2023-05-08T19:11:45;100554.88;;;21.66;64.33
23996;BME280;12207;50.076;8.848;2023-05-08T19:14:11;100551.59;;;21.64;64.15
23996;BME280;12207;50.076;8.848;2023-05-08T19:16:38;100545.34;;;21.63;64.32
23996;BME280;12207;50.076;8.848;2023-05-08T19:19:04;100546.16;;;21.64;64.23
23996;BME280;12207;50.076;8.848;2023-05-08T19:21:30;100546.44;;;21.62;64.43
23996;BME280;12207;50.076;8.848;2023-05-08T19:23:57;100549.97;;;21.63;64.41
23996;BME280;12207;50.076;8.848;2023-05-08T19:26:24;100551.88;;;21.62;64.56
23996;BME280;12207;50.076;8.848;2023-05-08T19:28:51;100548.34;;;21.62;64.39
23996;BME280;12207;50.076;8.848;2023-05-08T19:31:17;100542.88;;;21.62;64.38
23996;BME280;12207;50.076;8.848;2023-05-08T19:33:44;100549.44;;;21.61;64.56
23996;BME280;12207;50.076;8.848;2023-05-08T19:36:12;100545.88;;;21.60;64.49
23996;BME280;12207;50.076;8.848;2023-05-08T19:38:38;100541.25;;;21.61;64.21
23996;BME280;12207;50.076;8.848;2023-05-08T19:41:10;100545.06;;;21.60;64.95
23996;BME280;12207;50.076;8.848;2023-05-08T19:43:36;100545.59;;;21.62;64.71
23996;BME280;12207;50.076;8.848;2023-05-08T19:46:03;100540.16;;;21.62;64.63
23996;BME280;12207;50.076;8.848;2023-05-08T19:48:29;100540.16;;;21.62;64.55
23996;BME280;12207;50.076;8.848;2023-05-08T19:50:56;100534.69;;;21.62;64.62
23996;BME280;12207;50.076;8.848;2023-05-08T19:53:22;100526.53;;;21.62;64.67
23996;BME280;12207;50.076;8.848;2023-05-08T19:55:49;100535.78;;;21.61;64.52
23996;BME280;12207;50.076;8.848;2023-05-08T19:58:15;100536.59;;;21.61;64.49
23996;BME280;12207;50.076;8.848;2023-05-08T20:00:43;100545.59;;;21.62;64.45
23996;BME280;12207;50.076;8.848;2023-05-08T20:03:09;100542.88;;;21.62;64.77
23996;BME280;12207;50.076;8.848;2023-05-08T20:05:35;100544.78;;;21.61;64.69
23996;BME280;12207;50.076;8.848;2023-05-08T20:08:02;100545.59;;;21.62;64.73
23996;BME280;12207;50.076;8.848;2023-05-08T20:10:28;100542.88;;;21.62;64.61
23996;BME280;12207;50.076;8.848;2023-05-08T20:12:55;100536.59;;;21.61;64.71
23996;BME280;12207;50.076;8.848;2023-05-08T20:15:21;100535.78;;;21.61;64.64
23996;BME280;12207;50.076;8.848;2023-05-08T20:17:48;100534.16;;;21.60;64.55
23996;BME280;12207;50.076;8.848;2023-05-08T20:20:14;100535.78;;;21.61;64.71
23996;BME280;12207;50.076;8.848;2023-05-08T20:22:40;100538.53;;;21.61;64.70
23996;BME280;12207;50.076;8.848;2023-05-08T20:25:07;100534.16;;;21.60;64.43
23996;BME280;12207;50.076;8.848;2023-05-08T20:27:34;100534.16;;;21.60;64.70
23996;BME280;12207;50.076;8.848;2023-05-08T20:30:00;100534.16;;;21.60;64.70
23996;BME280;12207;50.076;8.848;2023-05-08T20:32:26;100534.16;;;21.60;64.53
23996;BME280;12207;50.076;8.848;2023-05-08T20:34:53;100537.97;;;21.59;64.77
23996;BME280;12207;50.076;8.848;2023-05-08T20:37:19;100543.44;;;21.59;64.72
23996;BME280;12207;50.076;8.848;2023-05-08T20:39:45;100542.63;;;21.58;64.85
23996;BME280;12207;50.076;8.848;2023-05-08T20:42:12;100540.97;;;21.57;64.66
23996;BME280;12207;50.076;8.848;2023-05-08T20:44:38;100535.53;;;21.57;64.75
23996;BME280;12207;50.076;8.848;2023-05-08T20:47:05;100533.63;;;21.58;64.36
23996;BME280;12207;50.076;8.848;2023-05-08T20:49:31;100534.69;;;21.57;64.81
23996;BME280;12207;50.076;8.848;2023-05-08T20:51:58;100540.16;;;21.57;64.67
23996;BME280;12207;50.076;8.848;2023-05-08T20:54:24;100534.69;;;21.57;64.88
23996;BME280;12207;50.076;8.848;2023-05-08T20:56:50;100526.78;;;21.55;64.65
23996;BME280;12207;50.076;8.848;2023-05-08T20:59:17;100525.97;;;21.55;64.37
23996;BME280;12207;50.076;8.848;2023-05-08T21:01:43;100531.44;;;21.55;64.87
23996;BME280;12207;50.076;8.848;2023-05-08T21:04:10;100527.88;;;21.54;64.66
23996;BME280;12207;50.076;8.848;2023-05-08T21:06:36;100528.16;;;21.53;64.81
23996;BME280;12207;50.076;8.848;2023-05-08T21:09:03;100525.44;;;21.53;64.71
23996;BME280;12207;50.076;8.848;2023-05-08T21:11:29;100519.97;;;21.53;64.66
23996;BME280;12207;50.076;8.848;2023-05-08T21:13:55;100528.97;;;21.53;64.82
23996;BME280;12207;50.076;8.848;2023-05-08T21:16:22;100514.53;;;21.53;64.57
23996;BME280;12207;50.076;8.848;2023-05-08T21:18:48;100518.34;;;21.52;64.68
23996;BME280;12207;50.076;8.848;2023-05-08T21:21:16;100518.34;;;21.52;64.46
23996;BME280;12207;50.076;8.848;2023-05-08T21:23:42;100513.16;;;21.50;64.62
23996;BME280;12207;50.076;8.848;2023-05-08T21:26:09;100515.06;;;21.50;64.79
23996;BME280;12207;50.076;8.848;2023-05-08T21:28:35;100509.63;;;21.50;64.47
23996;BME280;12207;50.076;8.848;2023-05-08T21:31:02;100506.91;;;21.50;64.50
23996;BME280;12207;50.076;8.848;2023-05-08T21:33:28;100506.91;;;21.50;64.70
23996;BME280;12207;50.076;8.848;2023-05-08T21:35:55;100505.28;;;21.49;64.65
23996;BME280;12207;50.076;8.848;2023-05-08T21:38:21;100498.19;;;21.48;64.61
23996;BME280;12207;50.076;8.848;2023-05-08T21:40:48;100502.84;;;21.47;64.63
23996;BME280;12207;50.076;8.848;2023-05-08T21:43:14;100502.84;;;21.47;64.55
23996;BME280;12207;50.076;8.848;2023-05-08T21:45:41;100513.75;;;21.47;64.50
23996;BME280;12207;50.076;8.848;2023-05-08T21:48:07;100507.47;;;21.47;64.80
23996;BME280;12207;50.076;8.848;2023-05-08T21:50:33;100513.75;;;21.47;64.54
23996;BME280;12207;50.076;8.848;2023-05-08T21:53:00;100507.47;;;21.47;64.63
23996;BME280;12207;50.076;8.848;2023-05-08T21:55:26;100506.66;;;21.46;64.92
23996;BME280;12207;50.076;8.848;2023-05-08T21:57:53;100505.84;;;21.46;65.04
23996;BME280;12207;50.076;8.848;2023-05-08T22:00:19;100503.38;;;21.44;64.86
23996;BME280;12207;50.076;8.848;2023-05-08T22:02:46;100511.28;;;21.46;64.71
23996;BME280;12207;50.076;8.848;2023-05-08T22:05:13;100510.47;;;21.45;64.45
23996;BME280;12207;50.076;8.848;2023-05-08T22:07:40;100497.13;;;21.43;64.70
23996;BME280;12207;50.076;8.848;2023-05-08T22:10:07;100508.03;;;21.43;64.68
23996;BME280;12207;50.076;8.848;2023-05-08T22:12:34;100498.22;;;21.42;64.82
23996;BME280;12207;50.076;8.848;2023-05-08T22:15:01;100499.03;;;21.43;64.69
23996;BME280;12207;50.076;8.848;2023-05-08T22:17:27;100490.03;;;21.42;64.60
23996;BME280;12207;50.076;8.848;2023-05-08T22:19:54;100487.31;;;21.42;64.82
23996;BME280;12207;50.076;8.848;2023-05-08T22:22:20;100485.38;;;21.43;64.59
23996;BME280;12207;50.076;8.848;2023-05-08T22:24:47;100482.13;;;21.41;64.75
23996;BME280;12207;50.076;8.848;2023-05-08T22:27:13;100480.22;;;21.41;64.63
23996;BME280;12207;50.076;8.848;2023-05-08T22:29:39;100481.84;;;21.42;64.82
23996;BME280;12207;50.076;8.848;2023-05-08T22:32:06;100481.31;;;21.40;64.46
23996;BME280;12207;50.076;8.848;2023-05-08T22:34:33;100469.31;;;21.41;64.77
23996;BME280;12207;50.076;8.848;2023-05-08T22:36:59;100475.84;;;21.40;64.51
23996;BME280;12207;50.076;8.848;2023-05-08T22:39:26;100470.41;;;21.40;64.71
23996;BME280;12207;50.076;8.848;2023-05-08T22:41:53;100463.31;;;21.39;64.91
23996;BME280;12207;50.076;8.848;2023-05-08T22:44:19;100463.31;;;21.39;64.88
23996;BME280;12207;50.076;8.848;2023-05-08T22:46:46;100459.75;;;21.39;64.88
23996;BME280;12207;50.076;8.848;2023-05-08T22:49:12;100457.03;;;21.39;65.14
23996;BME280;12207;50.076;8.848;2023-05-08T22:51:39;100450.78;;;21.38;64.65
23996;BME280;12207;50.076;8.848;2023-05-08T22:54:05;100443.69;;;21.37;64.98
23996;BME280;12207;50.076;8.848;2023-05-08T22:56:31;100441.78;;;21.38;65.03
23996;BME280;12207;50.076;8.848;2023-05-08T22:58:58;100438.22;;;21.37;64.61